Wisby Argan — LAFB7 — position and weather

sailwx.info

Track history (hours):
 
Tides and Currents Weather Stations Pressure Air Temp Water Temp Dewpoint Dewpoint Depression Visibility Wind Speed Wind Dir Waves Ship Positions

Wisby Argan

Last reported at 2018-May-22 18:07 UTC. Time now 2018-May-25 22:40 UTC.
Position N 35°58' W 005°35'.

Length 100 m; draft 6.5 m.

Type: Ship (hazmat cat A). MMSI: 259746000.

Date/timePositionNaut miles runAvg speedWind from/ knotsBaromVisibWave heightAir tempDewpointWater temp
2018-May-22 18:07N 35°58' W 005°35'1 8.6
2018-May-22 17:59N 35°58' W 005°34'4 8.4
2018-May-22 17:30N 35°59' W 005°29'4 8.3
2018-May-22 17:00N 36°01' W 005°25'5 9.8
2018-May-22 16:30N 36°06' W 005°23'4 7.2
2018-May-22 15:53N 36°11' W 005°24'0 0.8
2018-May-22 15:27N 36°11' W 005°24'0 0.0
2018-May-22 15:00N 36°11' W 005°24'0 0.0
2018-May-22 14:30N 36°11' W 005°24'0 0.0
2018-May-21 17:19N 36°10' W 005°24'3 7.9
2018-May-21 16:59N 36°08' W 005°23'5 9.9
2018-May-21 16:30N 36°04' W 005°20'1 1.7
2018-May-21 16:00N 36°04' W 005°19'2 4.4
2018-May-21 15:30N 36°03' W 005°21'4 8.3
2018-May-21 15:00N 36°07' W 005°24'1 1.0
2018-May-21 14:30N 36°08' W 005°23'4 7.0
2018-May-21 14:01N 36°04' W 005°22'1 1.2
2018-May-21 13:30N 36°04' W 005°22'0 0.4
2018-May-21 13:00N 36°04' W 005°22'1 2.7
2018-May-21 12:30N 36°03' W 005°21'4 8.0
2018-May-21 12:00N 35°59' W 005°23'611.3
2018-May-21 11:30N 35°57' W 005°30'  
Track history (hours):
 
Tides and Currents Weather Stations Pressure Air Temp Water Temp Dewpoint Dewpoint Depression Visibility Wind Speed Wind Dir Waves Ship Positions

Wisby Argan

Last reported at 2018-May-22 18:07 UTC. Time now 2018-May-25 22:40 UTC.
Position N 35°58' W 005°35'.

Length 100 m; draft 6.5 m.

Type: Ship (hazmat cat A). MMSI: 259746000.

Date/timePositionNaut miles runAvg speedWind from/ knotsBaromVisibWave heightAir tempDewpointWater temp
2018-May-22 18:07N 35°58' W 005°35'1 8.6
2018-May-22 17:59N 35°58' W 005°34'4 8.4
2018-May-22 17:30N 35°59' W 005°29'4 8.3
2018-May-22 17:00N 36°01' W 005°25'5 9.8
2018-May-22 16:30N 36°06' W 005°23'4 7.2
2018-May-22 15:53N 36°11' W 005°24'0 0.8
2018-May-22 15:27N 36°11' W 005°24'0 0.0
2018-May-22 15:00N 36°11' W 005°24'0 0.0
2018-May-22 14:30N 36°11' W 005°24'0 0.0
2018-May-21 17:19N 36°10' W 005°24'3 7.9
2018-May-21 16:59N 36°08' W 005°23'5 9.9
2018-May-21 16:30N 36°04' W 005°20'1 1.7
2018-May-21 16:00N 36°04' W 005°19'2 4.4
2018-May-21 15:30N 36°03' W 005°21'4 8.3
2018-May-21 15:00N 36°07' W 005°24'1 1.0
2018-May-21 14:30N 36°08' W 005°23'4 7.0
2018-May-21 14:01N 36°04' W 005°22'1 1.2
2018-May-21 13:30N 36°04' W 005°22'0 0.4
2018-May-21 13:00N 36°04' W 005°22'1 2.7
2018-May-21 12:30N 36°03' W 005°21'4 8.0
2018-May-21 12:00N 35°59' W 005°23'611.3
2018-May-21 11:30N 35°57' W 005°30'  

Dump ship's entire track history